Slick, Oklahoma
Current Conditions -  °F | °C
As of 11:55 AM on Wednesday 28 Jan 2015 (Local Time) from KOKM Reporting Station
Clear Clear  
Wind Chill: 72°   Ceiling: Unl
Heat Index: 72°   Visibility: 10mi
Dew Point: 42°   Wind: 17mph
Humidity: 33%   Direction: 180°S
Pressure: 29.98"   Gusts: 26mph
Location:  35.78°N, 96.27°W
Report Text: KOKM 281755Z AUTO 18015G23KT 10SM CLR 22/05 A2998 RMK AO2 T02230053 10223 20071
Loading
Personal Weather Stations






























Interactive Weather Map New forecast layout! Learn more

10-Day Weather Forecast

Advertisements
Track Severe Weather on mobile